Time;durP1;ratioP1;P1;durP2;ratioP2;P2;SDS_P1;SDS_P2;PMS_P1;PMS_P2;Temp;Humidity;BMP_temperature;BMP_pressure;BME280_temperature;BME280_humidity;BME280_pressure;Samples;Min_cycle;Max_cycle;Signal;HPM_P1;HPM_P2
2022/08/04 00:01:41;;;;;;;1.10;0.90;;;;;26.40;100280.00;;;;2086505;28;20958;-54
2022/08/04 00:02:55;;;;;;;1.23;1.00;;;;;26.40;100277.00;;;;2084907;28;20474;-52
2022/08/04 00:04:02;;;;;;;0.90;0.80;;;;;26.40;100240.00;;;;2086053;28;20451;-53
2022/08/04 00:05:03;;;;;;;1.83;1.23;;;;;26.40;100279.00;;;;2086624;28;20509;-53
2022/08/04 00:06:09;;;;;;;0.80;0.80;;;;;26.40;100238.00;;;;2086598;28;20459;-53
2022/08/04 00:07:17;;;;;;;1.00;0.80;;;;;26.40;100279.00;;;;2086640;28;20440;-53
2022/08/04 00:08:38;;;;;;;1.43;1.20;;;;;26.40;100274.00;;;;2086338;28;20462;-53
2022/08/04 00:09:52;;;;;;;1.00;0.80;;;;;26.40;100273.00;;;;2085880;28;20451;-53
2022/08/04 00:10:53;;;;;;;0.90;0.70;;;;;26.40;100269.00;;;;2087464;28;20542;-53
2022/08/04 00:11:54;;;;;;;1.67;0.90;;;;;26.40;100268.00;;;;2086400;28;20963;-55
2022/08/04 00:12:54;;;;;;;1.40;0.90;;;;;26.40;100267.00;;;;2086556;28;20553;-55
2022/08/04 00:13:57;;;;;;;1.20;0.90;;;;;26.40;100277.00;;;;2087393;28;20220;-55
2022/08/04 00:14:59;;;;;;;1.13;0.83;;;;;26.40;100272.00;;;;2086822;28;20220;-53
2022/08/04 00:16:04;;;;;;;0.93;0.80;;;;;26.40;100270.00;;;;2086800;28;20443;-53
2022/08/04 00:17:05;;;;;;;1.13;0.70;;;;;26.40;100266.00;;;;2086464;28;20567;-53
2022/08/04 00:18:08;;;;;;;1.40;0.70;;;;;26.40;100278.00;;;;2086555;28;20471;-53
2022/08/04 00:19:16;;;;;;;1.17;0.80;;;;;26.40;100265.00;;;;2087297;28;20458;-53
2022/08/04 00:20:17;;;;;;;1.53;0.60;;;;;26.40;100264.00;;;;2087243;28;20501;-53
2022/08/04 00:21:18;;;;;;;2.07;0.90;;;;;26.40;100270.00;;;;2086623;28;20471;-53
2022/08/04 00:22:19;;;;;;;1.20;0.80;;;;;26.40;100264.00;;;;2086259;28;20450;-53
2022/08/04 00:23:19;;;;;;;1.20;0.80;;;;;26.40;100290.00;;;;2069779;28;20210;-54
2022/08/04 00:24:19;;;;;;;1.23;0.83;;;;;26.40;100265.00;;;;2069266;28;21045;-53
2022/08/04 00:25:20;;;;;;;1.87;0.97;;;;;26.40;100268.00;;;;2068777;28;20679;-53
2022/08/04 00:26:20;;;;;;;1.73;1.00;;;;;26.40;100236.00;;;;2078352;28;20559;-53
2022/08/04 00:27:20;;;;;;;1.27;0.80;;;;;26.40;100265.00;;;;2076573;28;20641;-54
2022/08/04 00:28:21;;;;;;;1.30;0.90;;;;;26.40;100268.00;;;;2077905;28;20233;-53
2022/08/04 00:29:21;;;;;;;1.23;0.80;;;;;26.40;100266.00;;;;2078121;28;20278;-53
2022/08/04 00:30:23;;;;;;;1.10;0.90;;;;;26.40;100253.00;;;;2077752;28;20213;-53
2022/08/04 00:31:23;;;;;;;1.30;0.90;;;;;26.40;100256.00;;;;2078859;28;20210;-53
2022/08/04 00:32:25;;;;;;;1.13;0.93;;;;;26.40;100262.00;;;;2078142;28;20456;-53
2022/08/04 00:33:25;;;;;;;1.60;0.90;;;;;26.40;100256.00;;;;2078013;28;20697;-53
2022/08/04 00:34:26;;;;;;;1.93;0.70;;;;;26.40;100259.00;;;;2078110;28;20447;-53
2022/08/04 00:35:27;;;;;;;1.40;0.90;;;;;26.40;100259.00;;;;2077826;28;20678;-53
2022/08/04 00:36:27;;;;;;;1.10;0.90;;;;;26.40;100265.00;;;;2077189;28;21561;-58
2022/08/04 00:37:27;;;;;;;1.27;0.80;;;;;26.40;100257.00;;;;2076374;28;20328;-57
2022/08/04 00:38:28;;;;;;;1.23;0.77;;;;;26.40;100295.00;;;;2077666;28;20217;-55
2022/08/04 00:39:28;;;;;;;1.57;0.90;;;;;26.40;100227.00;;;;2081926;28;20692;-54
2022/08/04 00:40:38;;;;;;;1.30;1.00;;;;;26.40;100255.00;;;;2077940;28;20667;-53
2022/08/04 00:42:15;;;;;;;1.23;0.90;;;;;26.40;100256.00;;;;2086406;28;20604;-53
2022/08/04 00:43:32;;;;;;;1.30;0.97;;;;;26.40;100260.00;;;;2086383;28;20436;-53
2022/08/04 00:44:32;;;;;;;1.20;1.00;;;;;26.40;100253.00;;;;2086632;28;20500;-53
2022/08/04 00:45:54;;;;;;;1.67;0.90;;;;;26.40;100253.00;;;;2086810;28;21194;-53
2022/08/04 00:47:16;;;;;;;1.30;0.80;;;;;26.40;100254.00;;;;2087259;28;21220;-53
2022/08/04 00:48:30;;;;;;;1.30;0.97;;;;;26.40;100260.00;;;;2085851;28;20449;-54
2022/08/04 00:49:30;;;;;;;1.80;0.90;;;;;26.40;100246.00;;;;2085916;28;20435;-56
2022/08/04 00:50:42;;;;;;;1.87;1.00;;;;;26.40;100245.00;;;;2086561;28;20443;-55
2022/08/04 00:51:47;;;;;;;0.90;0.70;;;;;26.40;100251.00;;;;2087452;28;20217;-53
2022/08/04 00:53:01;;;;;;;1.30;0.93;;;;;26.40;100242.00;;;;2086578;28;20451;-53
2022/08/04 00:54:20;;;;;;;1.30;0.90;;;;;26.40;100248.00;;;;2085838;28;20451;-54
2022/08/04 00:55:30;;;;;;;1.63;1.00;;;;;26.40;100232.00;;;;2081568;28;20440;-53
2022/08/04 00:56:43;;;;;;;1.07;0.83;;;;;26.40;100245.00;;;;2078411;28;20514;-53
2022/08/04 00:57:58;;;;;;;1.40;1.10;;;;;26.40;100212.00;;;;2083419;28;20486;-53
2022/08/04 00:59:02;;;;;;;1.20;0.90;;;;;26.40;100248.00;;;;2086417;28;20458;-53
2022/08/04 01:00:10;;;;;;;1.50;0.90;;;;;26.40;100242.00;;;;2082375;28;20534;-53
2022/08/04 01:01:21;;;;;;;0.90;0.70;;;;;26.40;100238.00;;;;2087009;28;20451;-53
2022/08/04 01:02:28;;;;;;;1.30;0.90;;;;;26.40;100248.00;;;;2086248;28;20460;-53
2022/08/04 01:03:50;;;;;;;1.10;0.70;;;;;26.40;100239.00;;;;2086553;28;20509;-53
2022/08/04 01:05:04;;;;;;;1.03;0.90;;;;;26.40;100226.00;;;;2086561;28;20450;-53
2022/08/04 01:06:25;;;;;;;1.40;0.70;;;;;26.40;100241.00;;;;2080542;28;20462;-53
2022/08/04 01:08:03;;;;;;;1.40;0.90;;;;;26.40;100239.00;;;;2077452;28;20501;-53
2022/08/04 01:09:25;;;;;;;1.25;0.90;;;;;26.40;100207.00;;;;2081893;28;20451;-53
2022/08/04 01:10:31;;;;;;;1.20;0.80;;;;;26.40;100231.00;;;;2072715;28;20237;-53
2022/08/04 01:11:44;;;;;;;1.17;1.03;;;;;26.40;100238.00;;;;2080987;28;20855;-53
2022/08/04 01:13:22;;;;;;;1.37;0.83;;;;;26.40;100234.00;;;;2084683;28;20459;-53
2022/08/04 01:14:32;;;;;;;0.97;0.87;;;;;26.40;100190.00;;;;2086670;28;22024;-53
2022/08/04 01:15:41;;;;;;;1.50;0.90;;;;;26.40;100235.00;;;;2086467;28;20467;-53
2022/08/04 01:16:52;;;;;;;1.77;1.07;;;;;26.40;100234.00;;;;2086572;28;20439;-53
2022/08/04 01:18:18;;;;;;;1.20;0.93;;;;;26.40;100200.00;;;;2086118;28;20440;-53
2022/08/04 01:19:56;;;;;;;1.53;1.10;;;;;26.40;100235.00;;;;2085920;28;21163;-53
2022/08/04 01:21:05;;;;;;;0.97;0.70;;;;;26.40;100230.00;;;;2085962;28;20439;-53
2022/08/04 01:22:18;;;;;;;1.50;1.20;;;;;26.40;100263.00;;;;2085555;28;20524;-53
2022/08/04 01:23:30;;;;;;;1.17;0.97;;;;;26.40;100235.00;;;;2079932;28;20457;-53
2022/08/04 01:25:01;;;;;;;1.27;1.17;;;;;26.40;100230.00;;;;2079278;28;20456;-53
2022/08/04 01:26:41;;;;;;;1.50;0.70;;;;;26.40;100232.00;;;;2085462;28;20448;-53
2022/08/04 01:28:18;;;;;;;1.13;0.90;;;;;26.30;100228.00;;;;2081144;28;20808;-53
2022/08/04 01:29:20;;;;;;;1.37;0.80;;;;;26.40;100220.00;;;;2086781;28;20440;-54
2022/08/04 01:30:21;;;;;;;1.40;1.10;;;;;26.30;100252.00;;;;2086703;28;20482;-53
2022/08/04 01:31:41;;;;;;;1.60;1.07;;;;;26.30;100235.00;;;;2086346;28;20446;-53
2022/08/04 01:32:51;;;;;;;1.43;1.03;;;;;26.30;100219.00;;;;2085958;28;20295;-53
2022/08/04 01:33:51;;;;;;;2.07;1.20;;;;;26.30;100219.00;;;;2086278;28;20451;-52
2022/08/04 01:34:55;;;;;;;1.37;1.10;;;;;26.40;100224.00;;;;2085874;28;20550;-53
2022/08/04 01:35:58;;;;;;;1.10;1.00;;;;;26.40;100219.00;;;;2078420;28;20219;-52
2022/08/04 01:37:11;;;;;;;1.70;1.10;;;;;26.30;100209.00;;;;2086193;28;20462;-53
2022/08/04 01:38:25;;;;;;;1.77;1.10;;;;;26.40;100212.00;;;;2080960;28;20972;-54
2022/08/04 01:39:41;;;;;;;1.20;1.00;;;;;26.30;100205.00;;;;2086184;28;20455;-53
2022/08/04 01:40:41;;;;;;;1.80;0.90;;;;;26.30;100209.00;;;;2072909;28;20490;-53
2022/08/04 01:41:42;;;;;;;1.53;1.10;;;;;26.40;100202.00;;;;2085312;28;20513;-53
2022/08/04 01:42:44;;;;;;;1.60;0.93;;;;;26.40;100210.00;;;;2085634;28;20211;-53
2022/08/04 01:43:45;;;;;;;1.87;1.03;;;;;26.40;100196.00;;;;2077525;28;20218;-53
2022/08/04 01:44:46;;;;;;;1.40;0.93;;;;;26.30;100207.00;;;;2085637;28;20478;-53
2022/08/04 01:45:54;;;;;;;1.40;0.87;;;;;26.40;100205.00;;;;2086637;28;20448;-53
2022/08/04 01:46:54;;;;;;;1.40;1.10;;;;;26.30;100202.00;;;;2086225;28;20451;-53
2022/08/04 01:47:55;;;;;;;1.30;1.20;;;;;26.40;100206.00;;;;2085099;28;20447;-53
2022/08/04 01:48:55;;;;;;;1.47;1.10;;;;;26.30;100205.00;;;;2086737;28;20220;-53
2022/08/04 01:50:06;;;;;;;1.40;1.00;;;;;26.30;100203.00;;;;2079638;28;20217;-52
2022/08/04 01:51:07;;;;;;;2.63;1.00;;;;;26.30;100197.00;;;;2075583;28;20271;-53
2022/08/04 01:52:09;;;;;;;1.10;0.90;;;;;26.40;100182.00;;;;2085975;28;20888;-52
2022/08/04 01:53:09;;;;;;;0.97;0.83;;;;;26.40;100199.00;;;;2085790;28;20456;-55
2022/08/04 01:54:09;;;;;;;1.10;0.90;;;;;26.30;100178.00;;;;2085686;28;20539;-54
2022/08/04 01:55:11;;;;;;;1.00;0.83;;;;;26.30;100203.00;;;;2076477;28;20221;-54
2022/08/04 01:56:12;;;;;;;2.20;1.10;;;;;26.30;100203.00;;;;2061970;28;20219;-53
2022/08/04 01:57:12;;;;;;;1.63;1.07;;;;;26.40;100191.00;;;;2086074;28;20452;-53
2022/08/04 01:58:12;;;;;;;1.30;0.80;;;;;26.30;100188.00;;;;2085093;28;21087;-54
2022/08/04 01:59:14;;;;;;;0.93;0.70;;;;;26.30;100191.00;;;;2085928;28;20682;-53
2022/08/04 02:00:20;;;;;;;1.50;1.20;;;;;26.20;100191.00;;;;2084236;28;20288;-53
2022/08/04 02:01:21;;;;;;;1.80;0.97;;;;;26.30;100188.00;;;;2077755;28;20500;-53
2022/08/04 02:02:23;;;;;;;1.50;1.00;;;;;26.40;100191.00;;;;2078317;28;20441;-53
2022/08/04 02:03:23;;;;;;;1.20;1.10;;;;;26.40;100185.00;;;;2078715;28;20296;-53
2022/08/04 02:04:23;;;;;;;1.60;1.00;;;;;26.30;100179.00;;;;2078635;28;20456;-53
2022/08/04 02:05:25;;;;;;;1.33;0.93;;;;;26.30;100186.00;;;;2078727;28;20209;-53
2022/08/04 02:06:50;;;;;;;1.00;0.87;;;;;26.30;100181.00;;;;2082977;28;20221;-53
2022/08/04 02:08:12;;;;;;;1.00;0.90;;;;;26.30;100185.00;;;;2085051;28;20466;-53
2022/08/04 02:09:23;;;;;;;1.57;1.00;;;;;26.30;100178.00;;;;2086285;28;20447;-53
2022/08/04 02:10:48;;;;;;;1.37;0.90;;;;;26.30;100180.00;;;;2085895;28;20555;-53
2022/08/04 02:11:56;;;;;;;1.10;0.90;;;;;26.30;100182.00;;;;2082184;28;20534;-53
2022/08/04 02:13:15;;;;;;;1.30;1.10;;;;;26.30;100180.00;;;;2085980;28;20468;-53
2022/08/04 02:14:39;;;;;;;1.90;0.90;;;;;26.30;100170.00;;;;2077728;28;20443;-53
2022/08/04 02:16:15;;;;;;;1.20;0.80;;;;;26.30;100177.00;;;;2086667;28;20454;-53
2022/08/04 02:17:24;;;;;;;1.23;1.03;;;;;26.30;100174.00;;;;2084363;28;20455;-53
2022/08/04 02:18:51;;;;;;;1.17;1.00;;;;;26.30;100176.00;;;;2078509;28;20456;-53
2022/08/04 02:20:11;;;;;;;1.17;0.70;;;;;26.30;100170.00;;;;2084618;28;20426;-53
2022/08/04 02:21:11;;;;;;;1.50;1.03;;;;;26.30;100137.00;;;;2082073;28;20886;-53
2022/08/04 02:22:16;;;;;;;1.53;0.80;;;;;26.30;100168.00;;;;2077437;28;20447;-53
2022/08/04 02:23:33;;;;;;;2.63;1.20;;;;;26.30;100180.00;;;;2077406;28;20671;-54
2022/08/04 02:24:34;;;;;;;1.30;1.00;;;;;26.30;100175.00;;;;2078144;28;20456;-53
2022/08/04 02:25:39;;;;;;;1.60;0.93;;;;;26.20;100161.00;;;;2077736;28;20496;-53
2022/08/04 02:26:41;;;;;;;1.47;0.90;;;;;26.30;100168.00;;;;2082233;28;20509;-53
2022/08/04 02:28:02;;;;;;;1.43;1.00;;;;;26.30;100162.00;;;;2085770;28;20488;-53
2022/08/04 02:29:12;;;;;;;1.90;1.07;;;;;26.30;100168.00;;;;2086425;28;20564;-53
2022/08/04 02:30:12;;;;;;;1.57;1.20;;;;;26.30;100184.00;;;;2086738;28;21503;-53
2022/08/04 02:31:25;;;;;;;1.30;1.07;;;;;26.30;100157.00;;;;2086335;28;20451;-53
2022/08/04 02:32:27;;;;;;;2.17;1.20;;;;;26.30;100160.00;;;;2086516;28;20239;-53
2022/08/04 02:33:36;;;;;;;2.23;1.37;;;;;26.30;100163.00;;;;2082404;28;20505;-53
2022/08/04 02:35:13;;;;;;;2.80;1.00;;;;;26.30;100164.00;;;;2094099;28;21186;-53
2022/08/04 02:36:17;;;;;;;1.30;1.10;;;;;26.30;100161.00;;;;2081159;28;20556;-53
2022/08/04 02:37:18;;;;;;;1.73;1.10;;;;;26.30;100160.00;;;;2079940;28;20456;-53
2022/08/04 02:38:36;;;;;;;1.37;1.00;;;;;26.30;100155.00;;;;2085534;28;20448;-54
2022/08/04 02:39:36;;;;;;;1.33;1.00;;;;;26.30;100190.00;;;;2086761;28;20623;-52
2022/08/04 02:40:37;;;;;;;1.30;1.20;;;;;26.30;100157.00;;;;2085964;28;20443;-53
2022/08/04 02:41:38;;;;;;;1.33;1.00;;;;;26.30;100157.00;;;;2077638;28;20265;-53
2022/08/04 02:42:39;;;;;;;1.20;1.10;;;;;26.30;100155.00;;;;2085867;28;20213;-53
2022/08/04 02:43:39;;;;;;;1.67;0.80;;;;;26.30;100160.00;;;;2077502;28;20447;-53
2022/08/04 02:44:40;;;;;;;1.37;0.93;;;;;26.30;100159.00;;;;2069587;28;20215;-53
2022/08/04 02:45:40;;;;;;;1.37;0.97;;;;;26.30;100151.00;;;;2085691;28;20290;-53
2022/08/04 02:46:41;;;;;;;1.47;0.93;;;;;26.30;100149.00;;;;2085987;28;20209;-53
2022/08/04 02:47:41;;;;;;;2.27;1.10;;;;;26.30;100153.00;;;;2084858;28;20205;-53
2022/08/04 02:48:42;;;;;;;1.70;1.00;;;;;26.30;100152.00;;;;2085875;28;20213;-53
2022/08/04 02:49:42;;;;;;;1.50;1.00;;;;;26.30;100149.00;;;;2085689;28;20565;-53
2022/08/04 02:50:43;;;;;;;1.90;1.13;;;;;26.30;100154.00;;;;2086034;28;20450;-53
2022/08/04 02:51:50;;;;;;;1.10;0.87;;;;;26.30;100146.00;;;;2085804;28;20247;-53
2022/08/04 02:52:51;;;;;;;1.60;1.10;;;;;26.30;100149.00;;;;2085808;28;20659;-53
2022/08/04 02:53:53;;;;;;;1.50;1.10;;;;;26.30;100149.00;;;;2085566;28;20466;-53
2022/08/04 02:54:55;;;;;;;1.63;1.10;;;;;26.30;100155.00;;;;2085679;28;20271;-53
2022/08/04 02:55:55;;;;;;;1.23;1.00;;;;;26.30;100163.00;;;;2085407;28;20444;-53
2022/08/04 02:56:55;;;;;;;1.23;0.97;;;;;26.30;100118.00;;;;2085137;28;20444;-53
2022/08/04 02:57:57;;;;;;;1.23;1.03;;;;;26.30;100154.00;;;;2079209;28;20197;-53
2022/08/04 02:59:00;;;;;;;1.20;1.10;;;;;26.30;100152.00;;;;2085871;28;20972;-53
2022/08/04 03:00:14;;;;;;;1.20;1.00;;;;;26.30;100146.00;;;;2086111;28;20448;-53
2022/08/04 03:01:14;;;;;;;1.13;1.00;;;;;26.20;100142.00;;;;2086943;28;20962;-53
2022/08/04 03:02:15;;;;;;;1.50;1.10;;;;;26.30;100146.00;;;;2088123;28;20459;-53
2022/08/04 03:03:15;;;;;;;2.00;1.27;;;;;26.30;100146.00;;;;2087128;28;20228;-53
2022/08/04 03:04:18;;;;;;;1.57;1.10;;;;;26.30;100168.00;;;;2085823;28;20453;-53
2022/08/04 03:05:21;;;;;;;1.80;1.20;;;;;26.30;100151.00;;;;2086004;28;20221;-54
2022/08/04 03:06:32;;;;;;;2.13;1.13;;;;;26.30;100142.00;;;;2087292;28;20888;-54
2022/08/04 03:07:48;;;;;;;1.50;1.10;;;;;26.30;100154.00;;;;2086500;28;20493;-53
2022/08/04 03:09:07;;;;;;;1.53;1.07;;;;;26.30;100149.00;;;;2081756;28;20478;-53
2022/08/04 03:10:34;;;;;;;1.23;1.10;;;;;26.30;100145.00;;;;2087399;28;20440;-53
2022/08/04 03:11:46;;;;;;;1.73;1.07;;;;;26.30;100140.00;;;;2087615;28;20964;-53
2022/08/04 03:12:59;;;;;;;1.17;1.00;;;;;26.30;100144.00;;;;2088007;28;20443;-53
2022/08/04 03:14:18;;;;;;;1.10;1.00;;;;;26.30;100144.00;;;;2086848;28;20454;-53
2022/08/04 03:15:34;;;;;;;1.93;1.53;;;;;26.30;100107.00;;;;2081358;28;20452;-53
2022/08/04 03:16:42;;;;;;;1.53;1.17;;;;;26.30;100136.00;;;;2069314;28;21027;-53
2022/08/04 03:18:22;;;;;;;1.67;1.17;;;;;26.30;100130.00;;;;2072615;28;20476;-53
2022/08/04 03:19:50;;;;;;;1.10;1.00;;;;;26.30;100138.00;;;;2083957;28;20459;-53
2022/08/04 03:20:50;;;;;;;0.93;0.80;;;;;26.30;100131.00;;;;2089287;28;20811;-53
2022/08/04 03:22:11;;;;;;;1.40;1.10;;;;;26.30;100135.00;;;;2086949;28;20468;-53
2022/08/04 03:23:48;;;;;;;1.70;1.13;;;;;26.30;100095.00;;;;2078164;28;20253;-53
2022/08/04 03:25:11;;;;;;;2.20;1.27;;;;;26.30;100122.00;;;;2071865;28;20499;-53
2022/08/04 03:26:29;;;;;;;1.90;1.00;;;;;26.30;100125.00;;;;2083957;28;20456;-53
2022/08/04 03:27:47;;;;;;;1.37;1.23;;;;;26.30;100127.00;;;;2086755;28;20439;-53
2022/08/04 03:29:02;;;;;;;1.30;1.00;;;;;26.30;100127.00;;;;2087017;28;20451;-53
2022/08/04 03:30:09;;;;;;;1.60;1.20;;;;;26.30;100116.00;;;;2087032;28;20454;-53
2022/08/04 03:31:36;;;;;;;1.10;0.93;;;;;26.30;100123.00;;;;2086022;28;20455;-53
2022/08/04 03:33:00;;;;;;;1.50;1.33;;;;;26.30;100091.00;;;;2086223;28;20538;-53
2022/08/04 03:34:38;;;;;;;1.50;1.10;;;;;26.30;100122.00;;;;2086477;28;20462;-53
2022/08/04 03:36:00;;;;;;;2.10;1.10;;;;;26.30;100126.00;;;;2087080;28;20435;-53
2022/08/04 03:37:21;;;;;;;1.87;1.00;;;;;26.30;100115.00;;;;2086969;28;20444;-53
2022/08/04 03:38:50;;;;;;;1.57;1.20;;;;;26.30;100146.00;;;;2087490;28;21039;-53
2022/08/04 03:40:20;;;;;;;1.30;1.03;;;;;26.30;100130.00;;;;2086681;28;20458;-53
2022/08/04 03:42:00;;;;;;;2.00;1.30;;;;;26.30;100123.00;;;;2086491;28;20524;-53
2022/08/04 03:43:25;;;;;;;1.83;1.33;;;;;26.30;100120.00;;;;2085350;28;20520;-53
2022/08/04 03:44:31;;;;;;;1.40;1.10;;;;;26.30;100131.00;;;;2078077;28;20886;-55
2022/08/04 03:45:53;;;;;;;1.27;1.00;;;;;26.30;100131.00;;;;2086816;28;20448;-53
2022/08/04 03:47:12;;;;;;;1.13;0.97;;;;;26.30;100129.00;;;;2087611;28;20514;-53
2022/08/04 03:48:46;;;;;;;1.30;1.20;;;;;26.30;100125.00;;;;2085795;28;20458;-53
2022/08/04 03:50:23;;;;;;;1.23;1.10;;;;;26.30;100126.00;;;;2087208;28;20448;-53
2022/08/04 03:54:19;;;;;;;1.63;1.00;;;;;26.30;100129.00;;;;2086870;28;20443;-53
2022/08/04 03:55:22;;;;;;;2.10;1.30;;;;;26.30;100125.00;;;;2086902;28;20462;-53
2022/08/04 03:57:16;;;;;;;1.20;1.10;;;;;26.30;100138.00;;;;2087085;28;20447;-53
2022/08/04 03:59:01;;;;;;;2.53;1.20;;;;;26.30;100124.00;;;;2069258;28;20735;-53
2022/08/04 04:00:10;;;;;;;1.30;0.93;;;;;26.30;100117.00;;;;2075486;28;20475;-54
2022/08/04 04:01:17;;;;;;;1.80;1.20;;;;;26.30;100116.00;;;;2084110;28;20448;-53
2022/08/04 04:02:39;;;;;;;1.33;1.07;;;;;26.30;100119.00;;;;2083795;28;20235;-52
2022/08/04 04:04:10;;;;;;;1.00;0.70;;;;;26.30;100112.00;;;;2071595;28;20452;-53
2022/08/04 04:05:51;;;;;;;2.17;1.30;;;;;26.30;100115.00;;;;2081126;28;20911;-53
2022/08/04 04:06:57;;;;;;;1.90;1.20;;;;;26.30;100118.00;;;;2071404;28;21028;-53
2022/08/04 04:08:18;;;;;;;1.20;1.10;;;;;26.30;100114.00;;;;2073355;28;20472;-57
2022/08/04 04:09:37;;;;;;;1.57;1.10;;;;;26.30;100119.00;;;;2066820;28;20954;-53
2022/08/04 04:11:00;;;;;;;1.43;1.23;;;;;26.30;100116.00;;;;2072350;28;20487;-53
2022/08/04 04:12:25;;;;;;;1.33;1.10;;;;;26.30;100114.00;;;;2070007;28;20779;-53
2022/08/04 04:14:03;;;;;;;1.50;1.20;;;;;26.30;100114.00;;;;2075246;28;20436;-53
2022/08/04 04:15:31;;;;;;;1.83;1.27;;;;;26.30;100117.00;;;;2077358;28;20447;-53
2022/08/04 04:16:37;;;;;;;1.83;1.23;;;;;26.30;100080.00;;;;2085275;28;20443;-54
2022/08/04 04:17:40;;;;;;;1.97;1.17;;;;;26.30;100113.00;;;;2085969;28;20473;-54
2022/08/04 04:18:55;;;;;;;1.53;1.03;;;;;26.30;100113.00;;;;2086769;28;20444;-53
2022/08/04 04:20:24;;;;;;;1.10;0.90;;;;;26.30;100121.00;;;;2087045;28;20478;-53
2022/08/04 04:21:24;;;;;;;1.83;1.20;;;;;26.30;100114.00;;;;2086824;28;21021;-53
2022/08/04 04:22:42;;;;;;;2.40;0.97;;;;;26.30;100112.00;;;;2087554;28;20509;-52
2022/08/04 04:24:01;;;;;;;1.60;1.10;;;;;26.30;100116.00;;;;2087428;28;20826;-53
2022/08/04 04:25:07;;;;;;;1.90;1.30;;;;;26.30;100116.00;;;;2087092;28;20496;-54
2022/08/04 04:26:46;;;;;;;1.13;0.80;;;;;26.30;100117.00;;;;2087343;28;21006;-53
2022/08/04 04:28:09;;;;;;;2.20;1.20;;;;;26.30;100115.00;;;;2082799;28;20467;-53
2022/08/04 04:29:13;;;;;;;1.60;1.37;;;;;26.30;100114.00;;;;2081991;28;20486;-54
2022/08/04 04:30:37;;;;;;;2.37;1.77;;;;;26.30;100114.00;;;;2074187;28;20553;-53
2022/08/04 04:31:49;;;;;;;1.73;1.20;;;;;26.30;100119.00;;;;2072998;28;20472;-53
2022/08/04 04:32:56;;;;;;;2.20;1.40;;;;;26.30;100080.00;;;;2066088;28;20838;-53
2022/08/04 04:34:06;;;;;;;1.50;1.07;;;;;26.30;100116.00;;;;2072699;28;20437;-53
2022/08/04 04:35:27;;;;;;;1.80;1.00;;;;;26.30;100121.00;;;;2086221;28;20486;-54
2022/08/04 04:36:48;;;;;;;1.97;1.10;;;;;26.30;100126.00;;;;2086175;28;20501;-53
2022/08/04 04:38:10;;;;;;;1.50;1.20;;;;;26.30;100122.00;;;;2077431;28;20444;-53
2022/08/04 04:39:30;;;;;;;2.00;1.80;;;;;26.30;100132.00;;;;2082442;28;20439;-52
2022/08/04 04:40:39;;;;;;;1.43;1.10;;;;;26.30;100120.00;;;;2086519;28;20440;-53
2022/08/04 04:42:01;;;;;;;2.10;1.60;;;;;26.30;100115.00;;;;2086165;28;20467;-53
2022/08/04 04:43:08;;;;;;;1.30;1.10;;;;;26.30;100125.00;;;;2086620;28;20513;-53
2022/08/04 04:44:08;;;;;;;1.30;1.20;;;;;26.30;100121.00;;;;2086332;28;20479;-53
2022/08/04 04:45:17;;;;;;;1.77;1.43;;;;;26.30;100123.00;;;;2086825;28;21021;-53
2022/08/04 04:46:36;;;;;;;2.10;1.30;;;;;26.30;100145.00;;;;2086750;28;20220;-53
2022/08/04 04:48:15;;;;;;;1.70;0.90;;;;;26.30;100120.00;;;;2085444;28;20966;-53
2022/08/04 04:49:28;;;;;;;1.60;1.10;;;;;26.30;100116.00;;;;2084284;28;20448;-53
2022/08/04 04:50:35;;;;;;;1.33;1.07;;;;;26.30;100118.00;;;;2070159;28;20451;-53
2022/08/04 04:51:43;;;;;;;1.77;1.17;;;;;26.30;100110.00;;;;2071176;28;20437;-53
2022/08/04 04:52:48;;;;;;;1.50;1.20;;;;;26.30;100145.00;;;;2078144;28;20486;-53
2022/08/04 04:54:12;;;;;;;1.20;1.00;;;;;26.30;100116.00;;;;2070614;28;20449;-55
2022/08/04 04:55:20;;;;;;;1.30;1.00;;;;;26.30;100121.00;;;;2072929;28;20468;-53
2022/08/04 04:56:36;;;;;;;2.07;1.30;;;;;26.30;100115.00;;;;2071087;28;20446;-53
2022/08/04 04:57:36;;;;;;;1.20;0.97;;;;;26.30;100122.00;;;;2077338;28;20439;-54
2022/08/04 04:58:36;;;;;;;1.93;1.10;;;;;26.30;100124.00;;;;2070181;28;20604;-53
2022/08/04 04:59:38;;;;;;;1.40;1.10;;;;;26.30;100125.00;;;;2061840;28;20206;-53
2022/08/04 05:00:50;;;;;;;1.63;1.17;;;;;26.30;100119.00;;;;2078275;28;20233;-53
2022/08/04 05:02:06;;;;;;;2.00;1.03;;;;;26.30;100106.00;;;;2077944;28;20524;-53
2022/08/04 05:03:40;;;;;;;1.57;1.10;;;;;26.30;100123.00;;;;2077399;28;20524;-53
2022/08/04 05:04:50;;;;;;;2.27;1.20;;;;;26.30;100119.00;;;;2078183;28;20499;-53
2022/08/04 05:06:15;;;;;;;2.03;1.10;;;;;26.30;100118.00;;;;2078703;28;20449;-53
2022/08/04 05:07:40;;;;;;;1.37;1.10;;;;;26.30;100120.00;;;;2078299;28;20467;-53
2022/08/04 05:08:55;;;;;;;1.67;1.30;;;;;26.30;100120.00;;;;2078434;28;20436;-53
2022/08/04 05:10:23;;;;;;;2.13;1.20;;;;;26.30;100123.00;;;;2078630;28;20551;-53
2022/08/04 05:11:59;;;;;;;1.90;1.10;;;;;26.30;100134.00;;;;2078503;28;20456;-53
2022/08/04 05:13:22;;;;;;;1.50;1.10;;;;;26.30;100134.00;;;;2078692;28;20603;-53
2022/08/04 05:14:27;;;;;;;1.10;1.00;;;;;26.30;100121.00;;;;2077492;28;20460;-53
2022/08/04 05:15:30;;;;;;;2.07;1.03;;;;;26.30;100118.00;;;;2072119;28;20542;-53
2022/08/04 05:16:31;;;;;;;1.67;1.13;;;;;26.30;100121.00;;;;2062579;28;20450;-54
2022/08/04 05:17:39;;;;;;;1.30;1.00;;;;;26.30;100122.00;;;;2069125;28;20457;-53
2022/08/04 05:18:40;;;;;;;1.67;1.13;;;;;26.30;100085.00;;;;2077092;28;20514;-53
2022/08/04 05:19:48;;;;;;;1.33;0.70;;;;;26.30;100088.00;;;;2069774;28;20463;-53
2022/08/04 05:20:52;;;;;;;1.53;1.17;;;;;26.30;100130.00;;;;2070895;28;20452;-53
2022/08/04 05:22:02;;;;;;;2.07;1.10;;;;;26.30;100123.00;;;;2078009;28;20584;-53
2022/08/04 05:23:09;;;;;;;1.20;1.03;;;;;26.30;100127.00;;;;2077985;28;20506;-53
2022/08/04 05:24:11;;;;;;;1.23;1.10;;;;;26.30;100129.00;;;;2077469;28;20449;-53
2022/08/04 05:25:20;;;;;;;1.97;1.30;;;;;26.30;100129.00;;;;2076369;28;20582;-53
2022/08/04 05:26:22;;;;;;;2.10;1.30;;;;;26.30;100119.00;;;;2078153;28;20448;-53
2022/08/04 05:27:29;;;;;;;1.83;1.10;;;;;25.60;100129.00;;;;2069149;28;20456;-53
2022/08/04 05:28:40;;;;;;;1.30;0.90;;;;;26.30;100130.00;;;;2070552;28;20515;-53
2022/08/04 05:30:02;;;;;;;1.50;1.23;;;;;26.30;100128.00;;;;2069592;28;20579;-55
2022/08/04 05:31:36;;;;;;;1.07;0.80;;;;;26.30;100125.00;;;;2067502;28;20456;-53
2022/08/04 05:32:42;;;;;;;1.57;1.00;;;;;26.30;100124.00;;;;2070113;28;20965;-53
2022/08/04 05:33:49;;;;;;;1.20;0.97;;;;;26.30;100127.00;;;;2069314;28;20527;-54
2022/08/04 05:34:53;;;;;;;1.37;1.10;;;;;26.30;100127.00;;;;2069917;28;20476;-54
2022/08/04 05:35:56;;;;;;;2.67;1.30;;;;;26.30;100133.00;;;;2069651;28;20454;-53
2022/08/04 05:36:59;;;;;;;1.40;1.13;;;;;26.30;100127.00;;;;2054170;28;20459;-53
2022/08/04 05:38:00;;;;;;;1.47;1.23;;;;;26.30;100130.00;;;;2053495;28;20506;-53
2022/08/04 05:39:00;;;;;;;1.30;1.10;;;;;26.30;100130.00;;;;2061603;28;20588;-53
2022/08/04 05:40:04;;;;;;;1.90;1.33;;;;;26.30;100123.00;;;;2053677;28;20526;-53
2022/08/04 05:41:05;;;;;;;1.50;1.10;;;;;26.30;100134.00;;;;2061893;28;20639;-53
2022/08/04 05:42:05;;;;;;;1.67;1.43;;;;;26.30;100132.00;;;;2064470;28;20460;-53
2022/08/04 05:43:06;;;;;;;2.27;1.23;;;;;26.30;100118.00;;;;2063717;28;20469;-54
2022/08/04 05:44:07;;;;;;;1.63;1.17;;;;;26.30;100132.00;;;;2069519;28;20217;-53
2022/08/04 05:45:08;;;;;;;2.10;1.20;;;;;26.30;100131.00;;;;2069517;28;20681;-53
2022/08/04 05:46:09;;;;;;;1.67;1.03;;;;;26.30;100127.00;;;;2070824;28;20495;-52
2022/08/04 05:47:10;;;;;;;1.50;1.20;;;;;26.30;100134.00;;;;2071722;28;20458;-53
2022/08/04 05:48:11;;;;;;;1.57;1.07;;;;;26.30;100131.00;;;;2060386;28;20676;-53
2022/08/04 05:49:11;;;;;;;1.60;1.13;;;;;26.30;100133.00;;;;2061280;28;20482;-53
2022/08/04 05:50:11;;;;;;;2.00;1.17;;;;;26.30;100130.00;;;;2061254;28;20223;-53
2022/08/04 05:51:12;;;;;;;2.03;1.30;;;;;26.40;100131.00;;;;2074825;28;20222;-53
2022/08/04 05:52:12;;;;;;;1.60;1.00;;;;;26.30;100125.00;;;;2077374;28;20359;-53
2022/08/04 05:53:13;;;;;;;1.20;1.00;;;;;26.30;100134.00;;;;2076860;28;20304;-53
2022/08/04 05:54:13;;;;;;;1.43;1.23;;;;;26.30;100130.00;;;;2080880;28;20218;-54
2022/08/04 05:55:13;;;;;;;2.10;1.17;;;;;26.30;100129.00;;;;2077940;28;20223;-54